Time;durP1;ratioP1;P1;durP2;ratioP2;P2;SDS_P1;SDS_P2;PMS_P1;PMS_P2;Temp;Humidity;BMP_temperature;BMP_pressure;BME280_temperature;BME280_humidity;BME280_pressure;Samples;Min_cycle;Max_cycle;Signal;HPM_P1;HPM_P2
2021/10/20 00:00:34;;;;;;;4.87;4.47;;;14.20;99.90;;;;;;5073896;28;20195;-52
2021/10/20 00:03:00;;;;;;;5.10;3.40;;;14.10;99.90;;;;;;5073281;28;20172;-53
2021/10/20 00:05:26;;;;;;;3.60;3.30;;;14.20;99.90;;;;;;5073598;28;20408;-56
2021/10/20 00:07:52;;;;;;;3.30;3.00;;;14.20;99.90;;;;;;5073414;28;20167;-56
2021/10/20 00:10:20;;;;;;;6.77;4.17;;;14.40;99.90;;;;;;5055813;28;20221;-53
2021/10/20 00:12:47;;;;;;;3.57;3.27;;;14.10;99.90;;;;;;5071183;28;20503;-55
2021/10/20 00:15:16;;;;;;;3.53;3.17;;;14.10;99.90;;;;;;5067367;28;20423;-56
2021/10/20 00:17:41;;;;;;;4.00;3.60;;;14.10;99.90;;;;;;5072195;28;20445;-53
2021/10/20 00:20:11;;;;;;;5.40;4.70;;;14.20;99.90;;;;;;5049743;28;20998;-52
2021/10/20 00:22:38;;;;;;;4.00;3.60;;;14.20;99.90;;;;;;5052940;28;20559;-56
2021/10/20 00:25:06;;;;;;;4.77;4.33;;;14.20;99.90;;;;;;5053682;28;20845;-53
2021/10/20 00:27:31;;;;;;;3.83;3.43;;;14.10;99.90;;;;;;5053183;28;20414;-52
2021/10/20 00:29:57;;;;;;;4.20;3.80;;;14.00;99.90;;;;;;5053515;28;20410;-53
2021/10/20 00:32:23;;;;;;;4.70;3.80;;;14.10;99.90;;;;;;5059548;28;20260;-52
2021/10/20 00:34:49;;;;;;;4.20;3.80;;;14.10;99.90;;;;;;5073413;28;20168;-53
2021/10/20 00:37:15;;;;;;;3.97;3.57;;;14.10;99.90;;;;;;5072682;28;20523;-55
2021/10/20 00:39:40;;;;;;;4.90;3.83;;;14.10;99.90;;;;;;5073445;28;20407;-53
2021/10/20 00:42:06;;;;;;;4.80;4.30;;;14.00;99.90;;;;;;5073040;28;20596;-57
2021/10/20 00:44:52;;;;;;;4.97;4.43;;;13.90;99.90;;;;;;5073282;28;20188;-57
2021/10/20 00:47:18;;;;;;;5.60;3.97;;;14.00;99.90;;;;;;5073282;28;20559;-52
2021/10/20 00:49:44;;;;;;;4.73;4.03;;;13.90;99.90;;;;;;5073363;28;20484;-52
2021/10/20 00:52:11;;;;;;;4.20;3.60;;;13.80;99.90;;;;;;5072767;28;20517;-53
2021/10/20 00:54:38;;;;;;;4.70;4.23;;;13.90;99.90;;;;;;5077268;28;20632;-52
2021/10/20 00:57:05;;;;;;;4.70;4.30;;;13.90;99.90;;;;;;5077083;28;20454;-50
2021/10/20 00:59:32;;;;;;;4.40;3.63;;;13.50;99.90;;;;;;5077166;28;20404;-51
2021/10/20 01:01:58;;;;;;;6.30;3.90;;;13.60;99.90;;;;;;5077177;28;20413;-50
2021/10/20 01:04:24;;;;;;;4.13;3.73;;;13.70;99.90;;;;;;5077429;28;20396;-50
2021/10/20 01:06:51;;;;;;;4.80;4.17;;;13.60;99.90;;;;;;5076410;28;20401;-51
2021/10/20 01:09:17;;;;;;;4.00;3.70;;;13.50;99.90;;;;;;5077280;28;20173;-51
2021/10/20 01:11:43;;;;;;;4.63;3.83;;;13.40;99.90;;;;;;5076767;28;20427;-50
2021/10/20 01:14:08;;;;;;;3.83;3.43;;;13.40;99.90;;;;;;5076854;28;20406;-50
2021/10/20 01:16:34;;;;;;;3.50;3.20;;;13.30;99.90;;;;;;5077177;28;20240;-52
2021/10/20 01:19:00;;;;;;;3.93;3.57;;;13.30;99.90;;;;;;5077249;28;20693;-49
2021/10/20 01:21:26;;;;;;;4.40;4.00;;;13.30;99.90;;;;;;5076165;28;20202;-55
2021/10/20 01:23:51;;;;;;;3.90;3.57;;;13.30;99.90;;;;;;5076955;28;20593;-52
2021/10/20 01:26:17;;;;;;;4.60;4.20;;;13.20;99.90;;;;;;5076759;28;20167;-49
2021/10/20 01:28:44;;;;;;;4.20;3.80;;;13.00;99.90;;;;;;5076739;28;20174;-51
2021/10/20 01:31:11;;;;;;;4.50;4.10;;;12.90;99.90;;;;;;5076816;28;20186;-49
2021/10/20 01:33:36;;;;;;;3.93;3.53;;;13.00;99.90;;;;;;5076051;28;20812;-49
2021/10/20 01:36:02;;;;;;;4.63;3.83;;;12.90;99.90;;;;;;5076002;28;20447;-49
2021/10/20 01:38:28;;;;;;;5.60;4.00;;;12.80;99.90;;;;;;5075871;28;20170;-49
2021/10/20 01:40:53;;;;;;;4.80;4.07;;;12.80;99.90;;;;;;5076037;28;20424;-50
2021/10/20 01:43:19;;;;;;;3.97;3.67;;;12.80;99.90;;;;;;5075767;28;20195;-50
2021/10/20 01:45:45;;;;;;;5.13;3.97;;;12.70;99.90;;;;;;5076577;28;20231;-51
2021/10/20 01:48:11;;;;;;;4.07;3.70;;;12.70;99.90;;;;;;5077321;28;20408;-50
2021/10/20 01:50:36;;;;;;;4.37;4.07;;;12.80;99.90;;;;;;5076809;28;20186;-55
2021/10/20 01:53:02;;;;;;;4.10;3.70;;;12.80;99.90;;;;;;5076662;28;20545;-55
2021/10/20 01:55:28;;;;;;;4.10;3.80;;;12.80;99.90;;;;;;5078479;28;20162;-54
2021/10/20 01:57:54;;;;;;;5.90;4.60;;;12.80;99.90;;;;;;5077973;28;20446;-49
2021/10/20 02:00:19;;;;;;;4.27;3.63;;;12.70;99.90;;;;;;5076239;28;20158;-55
2021/10/20 02:02:45;;;;;;;4.67;4.27;;;12.70;99.90;;;;;;5075773;28;20182;-50
2021/10/20 02:05:13;;;;;;;4.10;3.70;;;12.70;99.90;;;;;;5075426;28;20165;-52
2021/10/20 02:07:39;;;;;;;3.40;3.10;;;12.50;99.90;;;;;;5075487;28;20981;-53
2021/10/20 02:10:11;;;;;;;4.30;3.43;;;12.60;99.90;;;;;;5072361;28;20420;-53
2021/10/20 02:12:37;;;;;;;3.70;3.40;;;12.70;99.90;;;;;;5075346;28;20424;-56
2021/10/20 02:15:04;;;;;;;4.13;3.43;;;12.70;99.90;;;;;;5075524;28;20407;-53
2021/10/20 02:17:30;;;;;;;2.83;2.53;;;12.70;99.90;;;;;;5075412;28;20182;-53
2021/10/20 02:19:55;;;;;;;2.83;2.63;;;12.90;99.90;;;;;;5075566;28;20486;-53
2021/10/20 02:22:21;;;;;;;6.03;3.37;;;13.30;99.90;;;;;;5075054;28;20197;-50
2021/10/20 02:24:46;;;;;;;4.00;2.90;;;13.40;99.90;;;;;;5075523;28;20171;-50
2021/10/20 02:27:12;;;;;;;3.67;3.30;;;13.60;99.90;;;;;;5075240;28;20164;-54
2021/10/20 02:29:38;;;;;;;3.43;3.10;;;13.80;99.90;;;;;;5075809;28;20169;-54
2021/10/20 02:32:04;;;;;;;4.27;3.53;;;14.00;99.90;;;;;;5075138;28;20186;-51
2021/10/20 02:34:29;;;;;;;4.20;3.47;;;14.10;99.90;;;;;;5075134;28;20245;-51
2021/10/20 02:36:55;;;;;;;2.90;2.60;;;14.10;99.90;;;;;;5074757;28;20907;-52
2021/10/20 02:39:21;;;;;;;3.67;3.30;;;14.10;99.90;;;;;;5075132;28;20261;-50
2021/10/20 02:41:47;;;;;;;3.33;3.03;;;14.20;99.90;;;;;;5074827;28;20217;-50
2021/10/20 02:44:12;;;;;;;3.60;3.30;;;14.30;99.90;;;;;;5074755;28;20171;-52
2021/10/20 02:46:38;;;;;;;3.07;2.77;;;14.30;99.90;;;;;;5075520;28;20480;-53
2021/10/20 02:49:04;;;;;;;3.70;3.27;;;14.40;99.90;;;;;;5075131;28;20200;-52
2021/10/20 02:51:30;;;;;;;3.70;3.40;;;14.30;99.90;;;;;;5074412;28;20532;-53
2021/10/20 02:53:59;;;;;;;3.20;2.90;;;14.40;99.90;;;;;;5075016;28;20177;-50
2021/10/20 02:56:25;;;;;;;4.23;2.80;;;14.40;99.90;;;;;;5075180;28;20473;-50
2021/10/20 02:58:52;;;;;;;3.93;3.30;;;14.40;99.90;;;;;;5074852;28;20438;-51
2021/10/20 03:01:18;;;;;;;3.10;2.77;;;14.40;99.90;;;;;;5074910;28;20568;-53
2021/10/20 03:03:45;;;;;;;3.07;2.77;;;14.40;99.90;;;;;;5074845;28;20449;-51
2021/10/20 03:06:14;;;;;;;3.37;3.07;;;14.50;99.90;;;;;;5073829;28;20173;-55
2021/10/20 03:08:40;;;;;;;3.40;2.67;;;14.50;99.90;;;;;;5069540;28;20404;-50
2021/10/20 03:11:06;;;;;;;3.70;2.80;;;14.60;99.90;;;;;;5074567;28;20503;-50
2021/10/20 03:13:31;;;;;;;3.47;2.80;;;14.60;99.90;;;;;;5063808;28;20205;-51
2021/10/20 03:15:57;;;;;;;4.37;2.90;;;14.60;99.90;;;;;;5053495;28;20217;-50
2021/10/20 03:18:23;;;;;;;4.43;3.30;;;14.60;99.90;;;;;;5055089;28;20191;-52
2021/10/20 03:20:48;;;;;;;3.47;3.17;;;14.50;99.90;;;;;;5054539;28;20318;-54
2021/10/20 03:23:14;;;;;;;4.00;2.87;;;14.50;99.90;;;;;;5054151;28;20496;-51
2021/10/20 03:25:40;;;;;;;3.40;2.97;;;14.50;99.90;;;;;;5091925;22;20651;-55
2021/10/20 03:28:05;;;;;;;3.73;3.33;;;14.40;99.90;;;;;;5025580;28;20450;-56
2021/10/20 03:30:31;;;;;;;4.80;3.30;;;14.50;99.90;;;;;;5014500;28;20184;-55
2021/10/20 03:32:57;;;;;;;3.20;2.90;;;14.40;99.90;;;;;;5021895;28;20252;-56
2021/10/20 03:35:23;;;;;;;3.17;2.93;;;14.40;99.90;;;;;;5034064;28;20162;-56
2021/10/20 03:37:48;;;;;;;3.50;3.20;;;14.30;99.90;;;;;;5034201;28;20201;-55
2021/10/20 03:40:14;;;;;;;3.00;2.70;;;14.40;99.90;;;;;;5033827;28;20168;-53
2021/10/20 03:42:40;;;;;;;3.30;2.97;;;14.40;99.90;;;;;;5034118;28;20172;-55
2021/10/20 03:45:07;;;;;;;3.10;2.80;;;14.40;99.90;;;;;;5025781;28;20417;-56
2021/10/20 03:47:33;;;;;;;3.30;3.00;;;14.40;99.90;;;;;;5014133;28;20417;-57
2021/10/20 03:49:58;;;;;;;3.23;2.93;;;14.40;99.90;;;;;;4996656;28;20455;-56
2021/10/20 03:52:24;;;;;;;3.03;2.83;;;14.50;99.90;;;;;;4996657;28;20175;-57
2021/10/20 03:54:50;;;;;;;3.10;2.80;;;14.50;99.90;;;;;;5014026;28;20548;-57
2021/10/20 03:57:16;;;;;;;2.70;2.50;;;14.50;99.90;;;;;;5030381;28;20196;-56
2021/10/20 03:59:43;;;;;;;3.67;3.17;;;14.50;99.90;;;;;;5033786;28;20638;-55
2021/10/20 04:02:09;;;;;;;3.33;3.03;;;14.50;99.90;;;;;;5034058;28;20399;-56
2021/10/20 04:04:34;;;;;;;4.93;3.40;;;14.60;99.90;;;;;;5033452;28;20407;-55
2021/10/20 04:07:00;;;;;;;4.33;2.90;;;14.60;99.90;;;;;;5033767;28;20193;-56
2021/10/20 04:09:25;;;;;;;3.03;2.73;;;14.50;99.90;;;;;;5034003;28;20178;-56
2021/10/20 04:11:51;;;;;;;5.27;3.50;;;14.50;99.90;;;;;;5034543;28;20170;-52
2021/10/20 04:14:17;;;;;;;4.73;3.63;;;14.40;99.90;;;;;;5035082;28;20197;-53
2021/10/20 04:16:42;;;;;;;4.30;3.90;;;14.40;99.90;;;;;;5017320;28;20635;-55
2021/10/20 04:19:08;;;;;;;4.20;3.30;;;14.30;99.90;;;;;;5014871;28;20189;-55
2021/10/20 04:21:33;;;;;;;3.60;3.30;;;14.20;99.90;;;;;;5023606;28;20217;-55
2021/10/20 04:23:59;;;;;;;3.40;3.10;;;14.00;99.90;;;;;;5035875;28;20214;-55
2021/10/20 04:26:24;;;;;;;6.10;3.03;;;14.10;99.90;;;;;;5037189;28;20218;-55
2021/10/20 04:28:50;;;;;;;7.37;3.60;;;14.00;99.90;;;;;;5049583;28;20667;-55
2021/10/20 04:31:16;;;;;;;3.17;2.87;;;13.90;99.90;;;;;;5034938;28;20265;-55
2021/10/20 04:33:41;;;;;;;4.33;3.93;;;13.80;99.90;;;;;;5034020;28;20184;-53
2021/10/20 04:36:07;;;;;;;4.10;2.90;;;13.80;99.90;;;;;;5034999;28;20203;-53
2021/10/20 04:38:32;;;;;;;4.00;3.60;;;13.60;99.90;;;;;;5016061;28;20638;-53
2021/10/20 04:40:58;;;;;;;4.77;3.77;;;13.50;99.90;;;;;;5033914;28;20198;-53
2021/10/20 04:43:24;;;;;;;4.27;3.33;;;13.40;99.90;;;;;;5035375;28;20690;-52
2021/10/20 04:45:51;;;;;;;4.23;3.10;;;13.40;99.90;;;;;;5034441;28;20195;-56
2021/10/20 04:48:17;;;;;;;4.13;3.20;;;13.30;99.90;;;;;;5033501;28;20216;-57
2021/10/20 04:50:42;;;;;;;3.30;3.00;;;13.20;99.90;;;;;;5033593;28;20500;-56
2021/10/20 04:53:08;;;;;;;5.70;3.53;;;13.20;99.90;;;;;;5033249;28;20183;-57
2021/10/20 04:55:34;;;;;;;5.70;3.23;;;13.20;99.90;;;;;;5032859;28;20660;-56
2021/10/20 04:58:01;;;;;;;3.50;3.13;;;13.20;99.90;;;;;;5033087;28;20191;-53
2021/10/20 05:00:27;;;;;;;4.60;3.23;;;13.10;99.90;;;;;;5033410;28;20411;-56
2021/10/20 05:02:53;;;;;;;3.73;3.30;;;13.00;99.90;;;;;;5033357;28;20461;-56
2021/10/20 05:05:19;;;;;;;3.90;3.10;;;13.00;99.90;;;;;;5033436;28;20169;-57
2021/10/20 05:07:53;;;;;;;5.73;2.80;;;13.00;99.90;;;;;;5033046;28;20174;-56
2021/10/20 05:10:20;;;;;;;5.60;3.47;;;13.00;99.90;;;;;;5033457;28;20476;-54
2021/10/20 05:12:45;;;;;;;3.40;3.10;;;12.80;99.90;;;;;;5032671;28;20413;-56
2021/10/20 05:15:12;;;;;;;4.00;3.13;;;12.80;99.90;;;;;;5033058;28;20901;-56
2021/10/20 05:17:42;;;;;;;4.93;3.20;;;12.50;99.90;;;;;;5032815;28;20450;-56
2021/10/20 05:20:10;;;;;;;8.23;3.57;;;12.60;99.90;;;;;;5033155;28;20406;-56
2021/10/20 05:22:38;;;;;;;5.10;4.10;;;12.70;99.90;;;;;;5032659;28;20414;-56
2021/10/20 05:25:05;;;;;;;4.93;3.80;;;12.60;99.90;;;;;;5032361;28;20414;-54
2021/10/20 05:27:31;;;;;;;4.00;3.60;;;12.60;99.90;;;;;;5032310;28;20600;-56
2021/10/20 05:30:00;;;;;;;4.87;3.47;;;12.60;99.90;;;;;;5032767;28;20468;-56
2021/10/20 05:32:26;;;;;;;3.40;3.10;;;12.70;99.90;;;;;;5032914;28;20180;-55
2021/10/20 05:34:52;;;;;;;5.60;3.47;;;12.70;99.90;;;;;;5032720;28;20417;-51
2021/10/20 05:37:19;;;;;;;4.03;3.63;;;12.70;99.90;;;;;;5032762;28;20457;-56
2021/10/20 05:39:45;;;;;;;4.67;3.90;;;12.80;99.90;;;;;;5034819;28;20401;-52
2021/10/20 05:42:11;;;;;;;5.53;4.87;;;12.80;99.90;;;;;;5036247;28;20834;-52
2021/10/20 05:44:36;;;;;;;4.40;4.00;;;12.70;99.90;;;;;;5036363;28;20407;-51
2021/10/20 05:47:02;;;;;;;5.80;4.63;;;12.70;99.90;;;;;;5036390;28;20195;-53
2021/10/20 05:49:27;;;;;;;4.83;3.53;;;12.70;99.90;;;;;;5018513;28;20185;-52
2021/10/20 05:51:53;;;;;;;5.60;4.30;;;12.60;99.90;;;;;;5036814;28;20566;-53
2021/10/20 05:54:19;;;;;;;4.00;3.60;;;12.50;99.90;;;;;;5036262;28;20206;-52
2021/10/20 05:56:44;;;;;;;5.23;3.90;;;12.60;99.90;;;;;;5035222;28;20679;-52
2021/10/20 05:59:10;;;;;;;5.27;4.10;;;12.60;99.90;;;;;;5036008;28;20273;-53
2021/10/20 06:01:35;;;;;;;6.20;4.40;;;12.70;99.90;;;;;;5035966;28;20191;-54
2021/10/20 06:04:03;;;;;;;5.40;4.90;;;12.60;99.90;;;;;;5035608;28;20674;-52
2021/10/20 06:06:28;;;;;;;7.37;4.97;;;12.50;99.90;;;;;;5035864;28;20581;-56
2021/10/20 06:08:54;;;;;;;7.53;4.50;;;12.60;99.90;;;;;;5026698;28;20404;-57
2021/10/20 06:11:20;;;;;;;5.47;4.53;;;12.70;99.90;;;;;;5015682;28;20171;-57
2021/10/20 06:13:46;;;;;;;4.83;4.23;;;12.60;99.90;;;;;;5016297;28;20194;-57
2021/10/20 06:16:12;;;;;;;4.67;3.57;;;12.60;99.90;;;;;;5015955;28;20880;-55
2021/10/20 06:18:38;;;;;;;4.60;3.83;;;12.60;99.90;;;;;;5015923;28;20172;-53
2021/10/20 06:21:04;;;;;;;4.80;4.40;;;12.60;99.90;;;;;;5004137;28;20187;-53
2021/10/20 06:23:30;;;;;;;4.70;3.73;;;12.60;99.90;;;;;;5015759;28;20406;-56
2021/10/20 06:25:56;;;;;;;7.00;3.90;;;12.60;99.90;;;;;;5020747;28;20575;-56
2021/10/20 06:28:22;;;;;;;6.67;3.90;;;12.60;99.90;;;;;;5035629;28;20412;-55
2021/10/20 06:30:47;;;;;;;4.50;3.40;;;12.70;99.90;;;;;;5035493;28;20182;-56
2021/10/20 06:33:13;;;;;;;4.57;4.17;;;12.60;99.90;;;;;;5035524;28;20207;-55
2021/10/20 06:35:39;;;;;;;4.73;3.87;;;12.60;99.90;;;;;;5035546;28;20196;-54
2021/10/20 06:38:04;;;;;;;3.70;3.07;;;12.70;99.90;;;;;;5035867;28;20683;-56
2021/10/20 06:40:31;;;;;;;6.20;3.73;;;12.80;99.90;;;;;;5017462;28;20631;-56
2021/10/20 06:42:57;;;;;;;6.80;3.83;;;12.60;99.90;;;;;;5035189;28;20175;-56
2021/10/20 06:45:23;;;;;;;5.23;4.73;;;12.60;99.90;;;;;;5035452;28;20432;-57
2021/10/20 06:47:49;;;;;;;6.13;4.27;;;12.60;99.90;;;;;;5035185;28;20418;-54
2021/10/20 06:50:15;;;;;;;14.87;3.93;;;12.70;99.90;;;;;;5035208;28;20409;-55
2021/10/20 06:52:41;;;;;;;4.57;3.87;;;12.70;99.90;;;;;;5035352;28;20267;-57
2021/10/20 06:55:07;;;;;;;3.77;3.47;;;12.70;99.90;;;;;;5034646;28;20413;-54
2021/10/20 06:57:33;;;;;;;3.97;3.57;;;12.70;99.90;;;;;;5034610;28;20466;-55
2021/10/20 06:59:59;;;;;;;5.03;4.07;;;12.80;99.90;;;;;;5035002;28;20416;-57
2021/10/20 07:02:25;;;;;;;4.27;3.40;;;12.90;99.90;;;;;;5035105;28;20258;-56
2021/10/20 07:04:51;;;;;;;5.03;4.40;;;13.00;99.90;;;;;;5034949;28;20586;-55
2021/10/20 07:07:16;;;;;;;4.10;3.63;;;13.10;99.90;;;;;;5034845;28;20421;-57
2021/10/20 07:09:42;;;;;;;5.20;4.13;;;13.20;99.90;;;;;;5035400;28;20230;-53
2021/10/20 07:12:08;;;;;;;6.43;3.77;;;13.30;99.90;;;;;;5034517;28;20184;-56
2021/10/20 07:14:34;;;;;;;5.07;3.90;;;13.40;99.90;;;;;;5018553;28;20655;-56
2021/10/20 07:16:59;;;;;;;4.90;4.00;;;13.50;99.90;;;;;;5015014;28;20467;-54
2021/10/20 07:19:27;;;;;;;4.87;3.73;;;13.60;99.90;;;;;;5015088;28;20403;-57
2021/10/20 07:21:52;;;;;;;4.00;3.70;;;13.60;99.90;;;;;;5015038;28;20732;-53
2021/10/20 07:24:18;;;;;;;3.90;3.60;;;13.60;99.90;;;;;;5015280;28;20440;-56
2021/10/20 07:26:44;;;;;;;3.50;3.20;;;13.70;99.90;;;;;;5026516;28;20222;-56
2021/10/20 07:29:09;;;;;;;4.23;3.67;;;13.90;99.90;;;;;;5034748;28;20183;-54
2021/10/20 07:31:35;;;;;;;4.67;3.57;;;14.10;99.90;;;;;;5034385;28;20185;-56
2021/10/20 07:34:01;;;;;;;4.37;3.97;;;14.30;99.90;;;;;;5034452;28;20186;-56
2021/10/20 07:36:27;;;;;;;4.67;4.23;;;14.40;99.90;;;;;;5034807;28;20549;-55
2021/10/20 07:38:53;;;;;;;4.53;3.70;;;14.60;99.90;;;;;;5034376;28;20530;-53
2021/10/20 07:41:19;;;;;;;4.70;4.00;;;14.70;99.90;;;;;;5033990;28;20415;-55
2021/10/20 07:43:45;;;;;;;6.30;4.10;;;14.80;99.90;;;;;;5034911;28;20407;-56
2021/10/20 07:46:10;;;;;;;4.30;3.90;;;15.00;99.90;;;;;;5035490;28;20192;-56
2021/10/20 07:48:36;;;;;;;4.30;3.90;;;15.00;99.90;;;;;;5044171;28;20246;-54
2021/10/20 07:51:02;;;;;;;4.43;4.03;;;15.00;99.90;;;;;;5040512;28;20175;-53
2021/10/20 07:53:27;;;;;;;8.53;4.90;;;15.10;99.90;;;;;;5037637;28;20166;-57
2021/10/20 07:55:53;;;;;;;4.13;3.83;;;15.00;99.90;;;;;;5042424;28;20190;-57
2021/10/20 07:58:19;;;;;;;4.67;4.00;;;15.00;99.90;;;;;;5051145;28;20285;-57
2021/10/20 08:00:44;;;;;;;3.93;3.50;;;15.10;99.90;;;;;;5034738;28;20255;-55
2021/10/20 08:03:10;;;;;;;7.80;3.73;;;15.30;99.90;;;;;;5033863;28;20169;-56
2021/10/20 08:05:35;;;;;;;3.40;3.10;;;15.50;99.90;;;;;;5034520;28;20192;-56
2021/10/20 08:08:01;;;;;;;4.00;3.60;;;15.60;99.90;;;;;;5033608;28;20178;-56
2021/10/20 08:10:29;;;;;;;3.60;3.30;;;15.90;99.90;;;;;;5033254;28;20224;-54
2021/10/20 08:12:56;;;;;;;4.53;3.70;;;16.10;99.90;;;;;;5033345;28;20242;-56
2021/10/20 08:15:22;;;;;;;4.20;3.40;;;16.30;99.90;;;;;;5034499;28;20945;-53
2021/10/20 08:17:48;;;;;;;5.43;3.80;;;16.40;99.90;;;;;;5012705;28;20440;-55
2021/10/20 08:20:17;;;;;;;6.03;3.63;;;16.60;99.90;;;;;;5013911;28;20500;-52
2021/10/20 08:22:44;;;;;;;2.77;2.57;;;16.70;99.90;;;;;;5014022;28;20644;-53
2021/10/20 08:25:10;;;;;;;3.13;2.87;;;16.80;99.90;;;;;;5013609;28;20908;-55
2021/10/20 08:27:36;;;;;;;3.57;2.90;;;17.10;99.90;;;;;;5032846;28;20929;-54
2021/10/20 08:30:03;;;;;;;3.30;3.00;;;17.20;99.90;;;;;;5033489;28;20410;-53
2021/10/20 08:32:29;;;;;;;3.43;3.13;;;17.40;99.90;;;;;;5033443;28;20418;-55
2021/10/20 08:34:55;;;;;;;3.17;2.87;;;17.60;99.90;;;;;;5033719;28;20423;-55
2021/10/20 08:37:20;;;;;;;2.90;2.70;;;17.60;99.90;;;;;;5033620;28;20202;-52
2021/10/20 08:39:48;;;;;;;4.07;2.70;;;17.70;99.90;;;;;;5033426;28;20163;-52
2021/10/20 08:42:13;;;;;;;3.87;3.30;;;17.80;99.90;;;;;;5033090;28;20186;-52
2021/10/20 08:44:39;;;;;;;3.80;3.20;;;17.90;99.90;;;;;;5033642;28;20406;-52
2021/10/20 08:47:08;;;;;;;3.73;3.43;;;17.90;99.90;;;;;;5033248;28;20244;-52
2021/10/20 08:49:34;;;;;;;3.60;3.30;;;18.00;99.90;;;;;;5033420;28;20397;-53
2021/10/20 08:52:00;;;;;;;4.63;3.03;;;18.10;99.90;;;;;;5033560;28;20409;-51
2021/10/20 08:54:25;;;;;;;3.30;2.77;;;18.30;99.90;;;;;;5035012;28;20402;-52
2021/10/20 08:56:52;;;;;;;4.57;3.20;;;18.60;99.90;;;;;;5015067;28;20458;-54
2021/10/20 08:59:20;;;;;;;3.23;2.93;;;18.60;99.90;;;;;;5033894;28;20191;-53
2021/10/20 09:01:46;;;;;;;3.30;3.00;;;18.80;99.90;;;;;;5033483;28;20927;-55
2021/10/20 09:04:11;;;;;;;3.73;3.30;;;18.90;99.90;;;;;;5033202;28;20402;-54
2021/10/20 09:06:37;;;;;;;3.40;3.10;;;18.80;99.90;;;;;;5032794;28;20260;-57
2021/10/20 09:09:07;;;;;;;3.27;2.97;;;18.70;99.90;;;;;;5033578;28;20254;-56
2021/10/20 09:11:33;;;;;;;3.17;2.87;;;18.80;99.90;;;;;;5031899;28;20254;-58
2021/10/20 09:14:09;;;;;;;4.10;2.73;;;18.70;99.90;;;;;;5006581;28;20415;-57
2021/10/20 09:16:37;;;;;;;5.10;2.90;;;18.80;99.90;;;;;;4997873;28;20455;-54
2021/10/20 09:19:22;;;;;;;3.13;2.90;;;18.90;99.90;;;;;;4998685;28;20465;-54
2021/10/20 09:21:57;;;;;;;7.57;3.20;;;19.00;99.90;;;;;;4997957;28;20392;-53
2021/10/20 09:24:40;;;;;;;3.80;2.90;;;19.10;99.90;;;;;;4998311;28;20466;-56
2021/10/20 09:27:27;;;;;;;3.00;2.70;;;19.20;99.90;;;;;;5077139;22;20479;-52
2021/10/20 09:30:13;;;;;;;2.97;2.67;;;19.30;99.90;;;;;;5076876;28;20752;-52
2021/10/20 09:32:39;;;;;;;5.97;3.20;;;19.40;99.90;;;;;;5076646;28;20714;-50
2021/10/20 09:35:07;;;;;;;2.83;2.63;;;19.40;99.90;;;;;;5076458;28;20397;-56
2021/10/20 09:37:33;;;;;;;3.90;3.17;;;19.40;99.90;;;;;;5076362;28;20813;-51
2021/10/20 09:40:13;;;;;;;2.90;2.70;;;19.50;99.90;;;;;;5076874;28;20415;-53
2021/10/20 09:42:46;;;;;;;3.00;2.60;;;19.60;99.90;;;;;;5075956;28;20195;-51
2021/10/20 09:45:16;;;;;;;4.60;3.20;;;19.50;99.90;;;;;;5076492;28;20398;-56
2021/10/20 09:47:43;;;;;;;3.40;3.10;;;19.50;99.90;;;;;;5076077;28;20511;-52
2021/10/20 09:50:09;;;;;;;3.37;3.07;;;19.60;99.90;;;;;;5076193;28;20885;-55
2021/10/20 09:52:50;;;;;;;3.10;2.80;;;19.60;99.90;;;;;;5058429;28;20408;-53
2021/10/20 09:55:30;;;;;;;3.83;2.77;;;19.70;99.90;;;;;;5076242;28;20400;-58
2021/10/20 09:58:13;;;;;;;3.60;2.67;;;19.80;99.90;;;;;;5075297;28;20443;-52
2021/10/20 10:00:41;;;;;;;3.40;3.10;;;20.20;99.90;;;;;;5076036;28;20408;-54
2021/10/20 10:03:07;;;;;;;3.50;3.13;;;20.30;99.90;;;;;;5076120;28;20449;-57
2021/10/20 10:05:34;;;;;;;3.60;3.27;;;20.40;99.90;;;;;;5075995;28;20436;-57
2021/10/20 10:07:59;;;;;;;2.73;2.53;;;20.70;99.90;;;;;;5075591;28;20495;-52
2021/10/20 10:10:25;;;;;;;3.90;3.10;;;20.90;99.90;;;;;;5075934;28;20605;-55
2021/10/20 10:13:01;;;;;;;2.97;2.77;;;21.10;99.90;;;;;;5075290;28;20569;-55
2021/10/20 10:15:28;;;;;;;2.80;2.60;;;21.20;99.60;;;;;;5075547;28;20424;-54
2021/10/20 10:17:56;;;;;;;2.97;2.60;;;21.20;99.90;;;;;;5075543;28;20455;-54
2021/10/20 10:20:26;;;;;;;3.20;2.73;;;21.30;99.90;;;;;;5075472;28;20397;-56
2021/10/20 10:22:59;;;;;;;2.80;2.57;;;21.40;99.90;;;;;;5059993;28;20894;-56
2021/10/20 10:25:38;;;;;;;3.37;3.07;;;21.30;99.90;;;;;;5055185;28;20966;-57
2021/10/20 10:28:19;;;;;;;4.30;2.70;;;21.70;99.90;;;;;;5072935;28;20994;-56
2021/10/20 10:30:52;;;;;;;4.40;2.80;;;21.70;99.10;;;;;;5075580;28;20804;-53
2021/10/20 10:33:20;;;;;;;3.90;2.43;;;21.50;99.40;;;;;;5075196;28;20404;-54
2021/10/20 10:36:23;;;;;;;3.73;3.10;;;21.50;99.70;;;;;;5075152;28;20821;-53
2021/10/20 10:39:02;;;;;;;3.33;2.87;;;21.60;99.20;;;;;;5075354;28;20408;-58
2021/10/20 10:41:35;;;;;;;2.60;2.40;;;21.70;99.40;;;;;;5075285;28;20908;-55
2021/10/20 10:44:01;;;;;;;3.27;2.90;;;22.00;99.50;;;;;;5074769;28;20387;-57
2021/10/20 10:46:38;;;;;;;4.30;3.17;;;22.20;99.30;;;;;;5074979;28;20508;-54
2021/10/20 10:49:20;;;;;;;2.90;2.60;;;22.20;99.20;;;;;;5057481;28;20412;-55
2021/10/20 10:52:20;;;;;;;3.57;2.90;;;22.70;98.90;;;;;;5075264;28;20411;-56
2021/10/20 10:54:58;;;;;;;3.20;2.60;;;23.30;97.30;;;;;;5075054;28;20510;-51
2021/10/20 10:57:35;;;;;;;4.57;2.50;;;23.40;97.50;;;;;;5074023;28;20805;-53
2021/10/20 11:00:29;;;;;;;4.53;3.23;;;23.70;96.80;;;;;;5074764;28;20377;-51
2021/10/20 11:02:55;;;;;;;3.50;2.27;;;24.30;96.80;;;;;;5043622;28;20415;-53
2021/10/20 11:05:32;;;;;;;3.80;2.60;;;25.10;94.80;;;;;;5074881;28;20499;-54
2021/10/20 11:08:04;;;;;;;3.10;2.80;;;24.70;94.90;;;;;;5074582;28;20450;-53
2021/10/20 11:10:31;;;;;;;2.50;2.30;;;24.60;94.90;;;;;;5074580;28;20396;-57
2021/10/20 11:12:57;;;;;;;2.37;2.17;;;25.20;95.00;;;;;;5073948;28;20432;-54
2021/10/20 11:15:24;;;;;;;3.73;2.47;;;25.20;93.70;;;;;;5074359;28;20404;-54
2021/10/20 11:17:51;;;;;;;2.80;2.60;;;25.30;93.80;;;;;;5074405;28;20455;-51
2021/10/20 11:20:19;;;;;;;3.60;2.17;;;25.00;94.80;;;;;;5074668;28;20446;-53
2021/10/20 11:22:47;;;;;;;2.70;2.50;;;25.80;93.30;;;;;;5074541;28;20400;-54
2021/10/20 11:25:14;;;;;;;3.00;2.50;;;27.60;91.70;;;;;;5074554;28;20397;-52
2021/10/20 11:27:48;;;;;;;3.93;2.27;;;28.60;89.10;;;;;;5073470;28;20444;-53
2021/10/20 11:30:17;;;;;;;3.07;2.50;;;28.90;86.00;;;;;;5056816;28;20412;-50
2021/10/20 11:32:45;;;;;;;2.10;2.00;;;30.20;80.90;;;;;;5074859;28;20404;-51
2021/10/20 11:35:17;;;;;;;2.47;2.27;;;30.00;78.30;;;;;;5074060;28;20467;-52
2021/10/20 11:37:50;;;;;;;4.33;2.13;;;29.50;82.10;;;;;;5072930;28;20530;-51
2021/10/20 11:40:15;;;;;;;2.10;1.90;;;30.20;78.40;;;;;;5073875;28;20380;-54
2021/10/20 11:42:42;;;;;;;2.97;2.63;;;30.70;76.20;;;;;;5073513;28;20801;-50
2021/10/20 11:45:08;;;;;;;2.57;2.13;;;29.90;75.30;;;;;;5074415;28;20174;-50
2021/10/20 11:47:38;;;;;;;2.40;2.13;;;28.50;76.90;;;;;;5074111;28;20428;-50
2021/10/20 11:50:04;;;;;;;2.43;2.03;;;28.10;80.30;;;;;;5074591;28;20388;-50
2021/10/20 11:52:33;;;;;;;2.87;2.60;;;28.40;77.90;;;;;;5074681;28;20420;-56
2021/10/20 11:54:59;;;;;;;2.20;2.00;;;28.80;79.20;;;;;;5075264;28;20404;-51
2021/10/20 11:57:25;;;;;;;2.00;1.90;;;29.10;76.70;;;;;;5073944;28;20515;-52
2021/10/20 11:59:52;;;;;;;2.27;2.03;;;29.60;76.80;;;;;;5073689;28;20166;-56
2021/10/20 12:02:18;;;;;;;6.40;2.37;;;29.60;75.10;;;;;;5073807;28;20446;-54
2021/10/20 12:04:45;;;;;;;2.23;2.00;;;30.10;74.10;;;;;;5072612;28;20917;-56
2021/10/20 12:07:17;;;;;;;2.23;1.90;;;32.10;72.50;;;;;;5062713;28;20198;-52
2021/10/20 12:09:44;;;;;;;3.50;2.07;;;32.50;68.90;;;;;;5053802;28;20393;-55
2021/10/20 12:12:13;;;;;;;2.83;1.70;;;30.90;69.10;;;;;;5053244;28;20452;-52
2021/10/20 12:14:41;;;;;;;3.70;2.63;;;30.40;71.40;;;;;;5055864;28;20397;-55
2021/10/20 12:17:08;;;;;;;2.60;2.00;;;30.40;72.20;;;;;;5053420;28;20789;-57
2021/10/20 12:19:37;;;;;;;1.93;1.77;;;31.20;72.10;;;;;;5053246;28;20397;-54
2021/10/20 12:22:06;;;;;;;2.87;2.40;;;31.00;69.90;;;;;;5053080;28;20401;-56
2021/10/20 12:24:34;;;;;;;2.27;2.07;;;30.40;73.20;;;;;;5052910;28;20405;-57
2021/10/20 12:27:00;;;;;;;1.87;1.77;;;30.80;71.30;;;;;;5062129;28;20624;-57
2021/10/20 12:29:26;;;;;;;2.50;2.30;;;30.10;71.50;;;;;;5073505;28;20791;-56
2021/10/20 12:31:56;;;;;;;3.00;2.17;;;29.40;73.30;;;;;;5074658;28;20413;-54
2021/10/20 12:34:26;;;;;;;2.33;2.13;;;29.60;75.40;;;;;;5074083;28;20166;-53
2021/10/20 12:36:53;;;;;;;4.40;2.20;;;29.10;74.70;;;;;;5072931;28;20455;-51
2021/10/20 12:39:19;;;;;;;5.00;2.50;;;29.00;74.50;;;;;;5073416;28;20409;-52
2021/10/20 12:41:47;;;;;;;4.13;3.30;;;27.70;77.90;;;;;;5072524;28;20415;-51
2021/10/20 12:44:13;;;;;;;4.00;2.43;;;26.90;81.60;;;;;;5073040;28;20917;-51
2021/10/20 12:46:43;;;;;;;3.13;2.30;;;25.60;82.80;;;;;;5073138;28;20426;-52
2021/10/20 12:49:12;;;;;;;4.70;2.40;;;25.30;85.10;;;;;;5072754;28;20150;-53